Time;durP1;ratioP1;P1;durP2;ratioP2;P2;SDS_P1;SDS_P2;PMS_P1;PMS_P2;Temp;Humidity;BMP_temperature;BMP_pressure;BME280_temperature;BME280_humidity;BME280_pressure;Samples;Min_cycle;Max_cycle;Signal;HPM_P1;HPM_P2
2023/05/24 00:01:44;;;;;;;12.38;3.35;;;19.00;46.50;;;;;;4949707;28;20806;-68
2023/05/24 00:04:13;;;;;;;11.00;2.90;;;18.60;47.50;;;;;;4940255;28;20252;-68
2023/05/24 00:06:43;;;;;;;4.90;2.73;;;18.50;50.80;;;;;;4941108;28;20542;-68
2023/05/24 00:09:12;;;;;;;8.63;2.43;;;18.60;52.60;;;;;;4948633;29;20467;-68
2023/05/24 00:11:40;;;;;;;6.30;2.93;;;18.80;53.70;;;;;;4947813;29;20443;-68
2023/05/24 00:14:08;;;;;;;5.93;2.10;;;19.00;54.10;;;;;;4948529;28;20491;-68
2023/05/24 00:16:38;;;;;;;9.63;3.20;;;19.10;54.30;;;;;;4940167;29;20455;-67
2023/05/24 00:19:09;;;;;;;10.30;3.13;;;19.20;54.30;;;;;;4948252;29;20493;-67
2023/05/24 00:21:38;;;;;;;7.83;2.70;;;19.30;54.50;;;;;;4940355;29;20484;-67
2023/05/24 00:24:07;;;;;;;5.53;2.43;;;19.40;54.80;;;;;;4947054;28;20949;-71
2023/05/24 00:26:35;;;;;;;5.80;2.30;;;19.50;55.10;;;;;;4947926;29;20471;-72
2023/05/24 00:29:05;;;;;;;4.63;2.60;;;19.50;55.10;;;;;;4948146;29;20498;-72
2023/05/24 00:31:34;;;;;;;5.53;2.40;;;19.60;55.30;;;;;;4947025;29;20464;-73
2023/05/24 00:34:03;;;;;;;8.23;2.60;;;19.60;55.30;;;;;;4947170;29;20536;-72
2023/05/24 00:36:36;;;;;;;3.60;1.93;;;19.70;55.60;;;;;;4940982;28;20456;-72
2023/05/24 00:39:05;;;;;;;7.60;2.47;;;19.70;55.70;;;;;;4942311;28;20507;-72
2023/05/24 00:41:34;;;;;;;3.33;2.03;;;19.70;55.80;;;;;;4947920;29;20452;-72
2023/05/24 00:44:02;;;;;;;9.40;2.17;;;19.70;55.90;;;;;;4940794;29;20476;-72
2023/05/24 00:46:33;;;;;;;3.00;1.80;;;19.70;56.30;;;;;;4947464;29;20824;-72
2023/05/24 00:49:03;;;;;;;5.53;2.10;;;19.70;56.40;;;;;;4947739;29;20434;-72
2023/05/24 00:51:32;;;;;;;4.30;1.70;;;19.70;56.50;;;;;;4939766;29;20815;-72
2023/05/24 00:54:01;;;;;;;5.13;2.70;;;19.80;56.70;;;;;;4947252;29;20452;-72
2023/05/24 00:56:30;;;;;;;6.13;2.60;;;19.80;56.90;;;;;;4947533;29;20812;-73
2023/05/24 00:59:01;;;;;;;5.83;2.20;;;19.80;57.20;;;;;;4939913;29;20976;-72
2023/05/24 01:01:30;;;;;;;4.43;2.70;;;19.80;57.30;;;;;;4947707;29;20466;-71
2023/05/24 01:03:59;;;;;;;5.57;2.57;;;19.80;57.40;;;;;;4947108;29;20519;-72
2023/05/24 01:06:31;;;;;;;5.10;2.93;;;19.80;57.60;;;;;;4938604;29;20499;-73
2023/05/24 01:09:21;;;;;;;6.17;2.20;;;19.80;57.70;;;;;;4947003;28;20837;-72
2023/05/24 01:12:07;;;;;;;4.13;1.70;;;19.80;57.70;;;;;;4947455;29;20596;-71
2023/05/24 01:14:44;;;;;;;3.80;1.93;;;19.80;57.80;;;;;;4941183;28;20503;-72
2023/05/24 01:17:18;;;;;;;5.50;1.63;;;19.80;58.00;;;;;;4947591;29;20838;-72
2023/05/24 01:19:54;;;;;;;4.40;2.30;;;19.80;58.20;;;;;;4942411;28;20490;-72
2023/05/24 01:23:01;;;;;;;3.80;1.70;;;19.80;58.30;;;;;;4960777;28;20458;-72
2023/05/24 01:25:45;;;;;;;5.47;2.10;;;19.80;58.10;;;;;;4930097;29;20478;-72
2023/05/24 01:28:17;;;;;;;4.07;1.80;;;19.80;58.20;;;;;;4947636;29;20825;-72
2023/05/24 01:30:46;;;;;;;4.93;2.03;;;19.80;58.40;;;;;;4945643;28;20476;-72
2023/05/24 01:33:16;;;;;;;4.77;2.13;;;19.80;58.80;;;;;;4947516;29;20440;-72
2023/05/24 01:35:44;;;;;;;4.33;1.83;;;19.80;58.60;;;;;;4938547;28;20495;-72
2023/05/24 01:38:14;;;;;;;17.10;3.30;;;19.80;59.00;;;;;;4944878;29;20477;-72
2023/05/24 01:40:44;;;;;;;10.73;3.70;;;19.50;48.70;;;;;;4940991;28;20487;-72
2023/05/24 01:43:19;;;;;;;6.80;2.53;;;19.20;52.70;;;;;;4945437;28;20447;-72
2023/05/24 01:45:58;;;;;;;6.80;2.80;;;19.20;54.50;;;;;;4940719;28;20483;-73
2023/05/24 01:48:33;;;;;;;6.50;2.50;;;19.30;55.40;;;;;;4941853;28;20482;-72
2023/05/24 01:51:07;;;;;;;7.53;2.40;;;19.40;55.40;;;;;;4943482;28;20832;-72
2023/05/24 01:53:41;;;;;;;7.63;2.23;;;19.40;55.90;;;;;;4947521;28;20487;-73
2023/05/24 01:56:11;;;;;;;6.87;2.60;;;19.50;56.10;;;;;;4942262;28;20452;-72
2023/05/24 01:58:44;;;;;;;8.75;2.88;;;19.40;56.40;;;;;;4942140;28;20459;-72
2023/05/24 02:01:13;;;;;;;5.27;2.10;;;19.50;56.40;;;;;;4942372;28;20608;-72
2023/05/24 02:03:41;;;;;;;5.17;2.30;;;19.50;56.40;;;;;;4955769;28;20452;-73
2023/05/24 02:06:10;;;;;;;8.40;3.50;;;19.50;56.40;;;;;;4947178;28;20500;-74
2023/05/24 02:08:40;;;;;;;6.30;2.47;;;19.50;56.50;;;;;;4949504;28;20480;-72
2023/05/24 02:11:08;;;;;;;4.90;2.00;;;19.50;56.50;;;;;;4946465;28;20454;-72
2023/05/24 02:13:37;;;;;;;5.70;2.03;;;19.60;56.80;;;;;;4949649;28;20458;-72
2023/05/24 02:16:07;;;;;;;7.00;2.90;;;19.60;56.80;;;;;;4944749;28;20443;-72
2023/05/24 02:18:35;;;;;;;7.37;2.10;;;19.50;56.90;;;;;;4945943;28;20447;-73
2023/05/24 02:21:05;;;;;;;5.23;2.20;;;19.60;57.00;;;;;;4940521;28;20479;-72
2023/05/24 02:23:33;;;;;;;4.50;2.10;;;19.60;56.90;;;;;;4947078;28;20458;-72
2023/05/24 02:26:02;;;;;;;6.63;2.87;;;19.60;57.00;;;;;;4950441;28;20458;-72
2023/05/24 02:28:31;;;;;;;9.90;1.90;;;19.60;57.10;;;;;;4948758;28;20476;-72
2023/05/24 02:30:59;;;;;;;4.63;2.40;;;19.60;57.10;;;;;;4952228;28;20444;-72
2023/05/24 02:33:30;;;;;;;4.67;2.43;;;19.60;57.40;;;;;;4951383;28;20546;-72
2023/05/24 02:35:58;;;;;;;3.23;1.80;;;19.60;57.40;;;;;;4943795;28;20479;-72
2023/05/24 02:38:27;;;;;;;5.13;2.57;;;19.60;57.50;;;;;;4951531;28;20444;-72
2023/05/24 02:40:55;;;;;;;4.80;1.90;;;19.50;58.90;;;;;;4951117;28;20530;-72
2023/05/24 02:43:24;;;;;;;5.87;2.90;;;19.60;57.70;;;;;;4948599;28;20452;-72
2023/05/24 02:45:52;;;;;;;5.57;1.90;;;19.50;57.60;;;;;;4951376;28;20460;-72
2023/05/24 02:48:20;;;;;;;4.50;1.70;;;19.50;58.00;;;;;;4951511;28;20562;-72
2023/05/24 02:50:50;;;;;;;3.80;2.10;;;19.50;58.00;;;;;;4952908;28;20510;-72
2023/05/24 02:53:20;;;;;;;5.30;2.00;;;19.50;58.10;;;;;;4947816;28;20443;-72
2023/05/24 02:55:49;;;;;;;4.17;2.70;;;19.50;58.10;;;;;;4951663;28;20479;-72
2023/05/24 02:58:18;;;;;;;3.57;1.70;;;19.50;58.10;;;;;;4955770;28;20448;-71
2023/05/24 03:00:49;;;;;;;5.07;1.97;;;19.50;58.10;;;;;;4967422;28;20576;-72
2023/05/24 03:03:20;;;;;;;5.13;2.00;;;19.50;58.20;;;;;;4949271;28;20448;-72
2023/05/24 03:05:50;;;;;;;6.80;1.93;;;19.50;58.30;;;;;;4952117;28;20475;-72
2023/05/24 03:08:18;;;;;;;3.33;1.43;;;19.50;58.30;;;;;;4949739;28;20476;-72
2023/05/24 03:10:47;;;;;;;3.03;1.50;;;19.50;58.40;;;;;;4950037;28;20844;-72
2023/05/24 03:13:15;;;;;;;4.20;2.13;;;19.50;58.60;;;;;;4948081;28;20464;-72
2023/05/24 03:15:44;;;;;;;6.53;1.97;;;19.50;58.70;;;;;;4947165;28;21035;-72
2023/05/24 03:18:13;;;;;;;6.17;2.40;;;19.50;58.90;;;;;;4934817;29;20459;-72
2023/05/24 03:20:43;;;;;;;2.73;1.67;;;19.50;58.70;;;;;;4941178;28;21045;-73
2023/05/24 03:23:15;;;;;;;3.10;1.77;;;19.50;58.90;;;;;;4948031;28;20452;-72
2023/05/24 03:25:44;;;;;;;5.23;1.70;;;19.50;59.10;;;;;;4956560;28;20563;-71
2023/05/24 03:28:14;;;;;;;3.10;1.67;;;19.50;59.10;;;;;;4944735;28;20473;-72
2023/05/24 03:30:44;;;;;;;3.30;1.37;;;19.40;59.10;;;;;;4948523;28;20664;-73
2023/05/24 03:33:12;;;;;;;5.03;1.60;;;19.50;59.20;;;;;;4955275;28;20797;-72
2023/05/24 03:35:42;;;;;;;4.50;1.80;;;19.40;59.10;;;;;;4938906;28;20482;-73
2023/05/24 03:38:10;;;;;;;3.33;1.63;;;19.40;59.20;;;;;;4949450;28;20495;-72
2023/05/24 03:40:43;;;;;;;6.33;2.07;;;19.50;59.30;;;;;;4940741;28;20515;-72
2023/05/24 03:43:18;;;;;;;2.63;1.50;;;19.50;59.40;;;;;;4942551;28;20512;-71
2023/05/24 03:45:56;;;;;;;1.83;1.40;;;19.40;59.40;;;;;;4954306;28;20898;-72
2023/05/24 03:48:25;;;;;;;2.73;1.80;;;19.40;59.50;;;;;;4948886;28;20494;-68
2023/05/24 03:50:53;;;;;;;3.10;1.70;;;19.40;59.60;;;;;;4960649;28;20507;-67
2023/05/24 03:53:22;;;;;;;3.30;1.90;;;19.40;59.50;;;;;;4951438;28;20960;-67
2023/05/24 03:55:52;;;;;;;4.73;1.93;;;19.40;59.60;;;;;;4971155;28;20497;-68
2023/05/24 03:58:22;;;;;;;3.10;1.50;;;19.40;59.70;;;;;;4949535;28;20464;-67
2023/05/24 04:00:51;;;;;;;4.30;1.80;;;19.40;60.00;;;;;;4948420;28;20535;-67
2023/05/24 04:03:20;;;;;;;3.30;1.60;;;19.40;59.80;;;;;;4942407;28;20802;-67
2023/05/24 04:05:48;;;;;;;3.37;1.60;;;19.40;60.00;;;;;;4939296;28;21015;-66
2023/05/24 04:08:17;;;;;;;5.33;1.73;;;19.40;59.90;;;;;;4939822;28;21019;-67
2023/05/24 04:10:45;;;;;;;6.27;1.90;;;19.40;60.00;;;;;;4948254;28;20468;-68
2023/05/24 04:13:15;;;;;;;3.13;1.93;;;19.40;60.00;;;;;;4943820;28;20521;-68
2023/05/24 04:15:44;;;;;;;2.97;1.50;;;19.30;60.00;;;;;;4953517;28;20579;-68
2023/05/24 04:18:12;;;;;;;3.90;1.47;;;19.30;60.00;;;;;;4948923;28;20444;-67
2023/05/24 04:20:41;;;;;;;5.33;1.77;;;19.30;60.10;;;;;;4940334;28;20490;-66
2023/05/24 04:23:10;;;;;;;3.43;1.60;;;19.30;60.20;;;;;;4948580;28;20448;-68
2023/05/24 04:25:39;;;;;;;5.33;1.67;;;19.30;60.30;;;;;;4954430;28;20507;-66
2023/05/24 04:28:09;;;;;;;2.53;1.67;;;19.30;60.40;;;;;;4944925;29;20449;-68
2023/05/24 04:30:38;;;;;;;4.47;1.87;;;19.30;60.50;;;;;;4944659;29;20508;-68
2023/05/24 04:33:08;;;;;;;4.00;1.47;;;19.30;60.50;;;;;;4948330;29;20444;-68
2023/05/24 04:35:36;;;;;;;4.53;1.87;;;19.30;60.50;;;;;;4937787;28;20480;-67
2023/05/24 04:38:06;;;;;;;4.13;1.50;;;19.30;60.50;;;;;;4953034;28;21038;-67
2023/05/24 04:40:34;;;;;;;2.63;1.17;;;19.30;60.80;;;;;;4950115;28;20468;-68
2023/05/24 04:43:03;;;;;;;4.07;1.67;;;19.30;60.80;;;;;;4951884;28;20940;-67
2023/05/24 04:45:32;;;;;;;4.27;2.20;;;19.30;60.90;;;;;;4952050;28;20475;-67
2023/05/24 04:48:02;;;;;;;3.73;1.40;;;19.30;60.90;;;;;;4947264;28;20540;-68
2023/05/24 04:50:31;;;;;;;4.17;1.70;;;19.30;61.00;;;;;;4939812;28;20480;-67
2023/05/24 04:52:59;;;;;;;3.50;1.50;;;19.20;61.00;;;;;;4951020;28;20459;-66
2023/05/24 04:55:27;;;;;;;4.20;1.70;;;19.20;61.20;;;;;;4949428;28;20495;-67
2023/05/24 04:57:56;;;;;;;3.20;1.37;;;19.20;60.90;;;;;;4955391;28;20503;-68
2023/05/24 05:00:24;;;;;;;4.90;2.30;;;19.20;61.00;;;;;;4938877;29;20468;-67
2023/05/24 05:02:53;;;;;;;3.83;1.43;;;19.20;61.10;;;;;;4958786;28;20443;-67
2023/05/24 05:05:23;;;;;;;2.67;1.70;;;19.20;61.20;;;;;;4945978;28;20531;-68
2023/05/24 05:07:51;;;;;;;2.87;1.40;;;19.20;61.30;;;;;;4946450;28;20467;-68
2023/05/24 05:10:20;;;;;;;2.63;1.43;;;19.20;61.00;;;;;;4947212;28;20475;-67
2023/05/24 05:12:51;;;;;;;4.57;1.53;;;19.20;61.00;;;;;;4939702;28;20499;-67
2023/05/24 05:15:22;;;;;;;2.00;1.20;;;19.20;61.00;;;;;;4947327;28;20802;-67
2023/05/24 05:17:51;;;;;;;3.20;1.40;;;19.20;61.20;;;;;;4947214;28;20448;-68
2023/05/24 05:20:19;;;;;;;2.57;1.20;;;19.30;61.30;;;;;;4938399;28;20489;-68
2023/05/24 05:22:49;;;;;;;2.80;1.43;;;19.30;61.40;;;;;;4942150;28;20765;-66
2023/05/24 05:25:18;;;;;;;4.17;1.20;;;19.30;61.50;;;;;;4946071;28;20886;-69
2023/05/24 05:27:46;;;;;;;2.90;1.30;;;19.30;61.10;;;;;;4947295;28;20433;-67
2023/05/24 05:30:15;;;;;;;2.80;1.50;;;19.30;61.30;;;;;;4939415;28;21008;-67
2023/05/24 05:32:43;;;;;;;4.40;1.60;;;19.30;61.20;;;;;;4947105;28;20460;-67
2023/05/24 05:35:12;;;;;;;2.73;1.40;;;19.30;61.00;;;;;;4939323;28;20485;-67
2023/05/24 05:37:40;;;;;;;2.47;1.57;;;19.30;61.20;;;;;;4945833;28;20459;-68
2023/05/24 05:40:11;;;;;;;2.27;1.27;;;19.30;60.60;;;;;;4947037;28;20467;-68
2023/05/24 05:42:40;;;;;;;3.80;1.60;;;19.30;60.90;;;;;;4946057;28;20831;-68
2023/05/24 05:45:09;;;;;;;2.60;1.20;;;19.30;61.20;;;;;;4960437;28;20491;-68
2023/05/24 05:47:37;;;;;;;3.37;1.80;;;19.30;61.20;;;;;;4947122;28;20882;-68
2023/05/24 05:50:07;;;;;;;3.40;1.47;;;19.30;61.10;;;;;;4940884;28;20504;-68
2023/05/24 05:52:35;;;;;;;2.30;1.80;;;19.30;61.20;;;;;;4950123;28;20452;-68
2023/05/24 05:55:04;;;;;;;2.83;1.20;;;19.40;61.10;;;;;;4954082;28;20484;-69
2023/05/24 05:57:34;;;;;;;3.00;1.73;;;19.30;61.30;;;;;;4952996;28;20447;-69
2023/05/24 06:00:03;;;;;;;2.43;1.70;;;19.30;61.30;;;;;;4948552;28;20472;-68
2023/05/24 06:02:39;;;;;;;2.10;1.27;;;19.30;61.00;;;;;;4949963;28;20449;-67
2023/05/24 06:05:08;;;;;;;3.07;1.60;;;19.30;61.20;;;;;;4947493;28;20488;-68
2023/05/24 06:07:37;;;;;;;2.30;1.27;;;19.30;61.50;;;;;;4947585;28;20480;-68
2023/05/24 06:10:07;;;;;;;2.43;1.20;;;19.30;61.30;;;;;;4949363;28;20826;-67
2023/05/24 06:12:37;;;;;;;2.47;1.30;;;19.30;61.30;;;;;;4949142;28;20431;-67
2023/05/24 06:15:07;;;;;;;3.80;1.47;;;19.30;61.40;;;;;;4943239;28;20488;-67
2023/05/24 06:17:36;;;;;;;2.57;1.80;;;19.30;61.30;;;;;;4949222;28;20794;-67
2023/05/24 06:20:08;;;;;;;3.80;1.73;;;19.30;61.50;;;;;;4943849;28;20511;-67
2023/05/24 06:22:38;;;;;;;3.10;1.30;;;19.30;61.40;;;;;;4948248;28;20968;-67
2023/05/24 06:25:07;;;;;;;4.00;1.27;;;19.20;62.50;;;;;;4949592;28;20472;-67
2023/05/24 06:27:37;;;;;;;2.53;1.30;;;19.30;61.50;;;;;;4949663;28;20435;-67
2023/05/24 06:30:07;;;;;;;2.77;2.00;;;19.30;61.40;;;;;;4936321;28;20830;-68
2023/05/24 06:32:36;;;;;;;3.03;1.60;;;19.30;61.30;;;;;;4949254;28;20459;-68
2023/05/24 06:35:05;;;;;;;4.13;1.37;;;19.30;61.70;;;;;;4942961;28;20500;-67
2023/05/24 06:37:33;;;;;;;2.67;1.50;;;19.30;61.70;;;;;;4964154;28;20459;-68
2023/05/24 06:40:03;;;;;;;3.20;1.37;;;19.30;62.00;;;;;;4955210;28;20476;-67
2023/05/24 06:42:32;;;;;;;2.93;1.30;;;19.20;61.70;;;;;;4950196;28;20436;-66
2023/05/24 06:45:01;;;;;;;3.13;1.73;;;19.30;61.80;;;;;;4945415;28;20484;-68
2023/05/24 06:47:30;;;;;;;4.33;1.97;;;19.30;61.60;;;;;;4948677;28;20451;-68
2023/05/24 06:49:59;;;;;;;2.97;1.93;;;19.30;61.20;;;;;;4950795;28;20484;-68
2023/05/24 06:52:28;;;;;;;2.93;1.40;;;19.30;61.20;;;;;;4942760;28;20543;-68
2023/05/24 06:54:56;;;;;;;4.27;1.90;;;19.30;61.60;;;;;;4950469;28;20482;-67
2023/05/24 06:57:25;;;;;;;3.13;1.60;;;19.30;61.30;;;;;;4946565;28;20459;-67
2023/05/24 06:59:54;;;;;;;4.60;1.80;;;19.30;61.40;;;;;;4956432;28;20463;-69
2023/05/24 07:02:26;;;;;;;2.40;1.60;;;19.30;60.40;;;;;;4949199;28;20459;-67
2023/05/24 07:04:54;;;;;;;1.97;1.10;;;19.30;61.20;;;;;;4936565;28;20600;-68
2023/05/24 07:07:23;;;;;;;3.00;1.40;;;19.30;61.40;;;;;;4961418;28;20479;-66
2023/05/24 07:09:52;;;;;;;5.40;1.50;;;19.30;61.30;;;;;;4942573;29;20863;-67
2023/05/24 07:12:20;;;;;;;4.23;2.40;;;19.30;60.90;;;;;;4954195;28;20447;-67
2023/05/24 07:14:48;;;;;;;3.07;1.90;;;19.30;60.10;;;;;;4946900;28;20819;-68
2023/05/24 07:17:17;;;;;;;2.33;1.30;;;19.30;60.50;;;;;;4948384;28;20444;-68
2023/05/24 07:19:47;;;;;;;4.70;2.00;;;19.30;61.00;;;;;;4953209;28;20487;-67
2023/05/24 07:22:15;;;;;;;5.07;2.20;;;19.30;61.30;;;;;;4943210;28;20874;-67
2023/05/24 07:24:43;;;;;;;2.50;1.50;;;19.20;61.00;;;;;;4948091;28;20827;-68
2023/05/24 07:27:12;;;;;;;4.03;1.70;;;19.20;61.10;;;;;;4956004;28;20609;-68
2023/05/24 07:29:41;;;;;;;3.23;1.83;;;19.20;61.30;;;;;;4948412;28;20452;-68
2023/05/24 07:32:09;;;;;;;2.60;1.70;;;19.20;61.70;;;;;;4949042;28;20448;-67
2023/05/24 07:34:38;;;;;;;3.33;1.23;;;19.20;61.50;;;;;;4944598;28;20476;-67
2023/05/24 07:37:08;;;;;;;3.50;1.70;;;19.20;61.90;;;;;;4958464;28;20441;-67
2023/05/24 07:39:37;;;;;;;5.07;1.60;;;19.20;61.70;;;;;;4948396;28;20650;-66
2023/05/24 07:42:06;;;;;;;4.43;1.80;;;19.20;61.60;;;;;;4945863;28;20444;-67
2023/05/24 07:44:35;;;;;;;2.60;1.40;;;19.10;61.70;;;;;;4941591;28;20598;-72
2023/05/24 07:47:03;;;;;;;4.13;1.93;;;19.10;61.80;;;;;;4943289;28;20448;-72
2023/05/24 07:49:32;;;;;;;4.73;1.73;;;19.10;61.60;;;;;;4947046;28;20523;-72
2023/05/24 07:52:00;;;;;;;4.47;1.60;;;19.10;61.30;;;;;;4962651;28;20474;-72
2023/05/24 07:54:30;;;;;;;2.00;1.30;;;19.20;61.80;;;;;;4959219;28;20483;-71
2023/05/24 07:56:59;;;;;;;3.27;1.83;;;19.10;61.90;;;;;;4946946;28;20460;-72
2023/05/24 07:59:28;;;;;;;2.67;1.77;;;19.10;62.00;;;;;;4946772;28;20460;-72
2023/05/24 08:02:00;;;;;;;2.80;1.47;;;19.10;61.50;;;;;;4942085;28;20452;-74
2023/05/24 08:04:29;;;;;;;4.40;1.70;;;19.10;63.00;;;;;;4954925;28;20470;-73
2023/05/24 08:06:58;;;;;;;3.50;2.40;;;19.10;61.90;;;;;;4955348;28;20482;-73
2023/05/24 08:09:28;;;;;;;4.47;2.17;;;19.10;61.20;;;;;;4973005;28;20416;-72
2023/05/24 08:11:58;;;;;;;2.00;1.50;;;19.10;60.30;;;;;;4943353;28;20530;-72
2023/05/24 08:14:29;;;;;;;4.93;2.07;;;19.10;61.00;;;;;;4940956;28;20480;-72
2023/05/24 08:16:59;;;;;;;3.20;2.00;;;19.10;61.70;;;;;;4954067;28;20452;-72
2023/05/24 08:19:34;;;;;;;3.37;2.00;;;19.10;61.40;;;;;;4947812;28;20444;-71
2023/05/24 08:22:04;;;;;;;4.17;2.00;;;19.10;61.80;;;;;;4953238;28;20424;-73
2023/05/24 08:24:32;;;;;;;3.87;1.77;;;19.10;62.10;;;;;;4946570;28;20472;-72
2023/05/24 08:27:03;;;;;;;3.77;2.07;;;19.10;61.80;;;;;;4947106;28;20447;-72
2023/05/24 08:29:31;;;;;;;9.37;3.13;;;19.10;61.70;;;;;;4947156;28;20498;-72
2023/05/24 08:32:01;;;;;;;3.50;1.50;;;19.10;61.00;;;;;;4948406;28;20841;-72
2023/05/24 08:34:30;;;;;;;4.77;2.77;;;19.10;61.30;;;;;;4954353;28;20464;-72
2023/05/24 08:36:58;;;;;;;3.23;1.97;;;19.10;61.40;;;;;;4948096;28;20547;-73
2023/05/24 08:39:27;;;;;;;3.80;2.13;;;19.00;61.00;;;;;;4948074;28;20444;-72
2023/05/24 08:41:56;;;;;;;4.00;1.90;;;19.00;60.40;;;;;;4947230;28;20527;-72
2023/05/24 08:44:46;;;;;;;2.83;1.43;;;19.00;60.00;;;;;;4953536;28;20488;-72
2023/05/24 08:47:15;;;;;;;2.10;1.40;;;19.00;61.40;;;;;;4947348;28;20882;-72
2023/05/24 08:49:43;;;;;;;3.00;1.50;;;19.00;61.50;;;;;;4944713;28;20483;-72
2023/05/24 08:52:13;;;;;;;5.67;2.70;;;19.00;61.50;;;;;;4948605;28;20466;-72
2023/05/24 08:54:43;;;;;;;4.60;2.63;;;19.10;59.60;;;;;;4949197;28;20998;-72
2023/05/24 08:57:11;;;;;;;3.37;2.00;;;19.00;60.00;;;;;;4953352;28;20454;-72
2023/05/24 08:59:42;;;;;;;4.80;2.33;;;19.00;60.20;;;;;;4941779;28;20453;-72
2023/05/24 09:02:14;;;;;;;3.60;2.10;;;19.00;59.90;;;;;;4947415;28;20488;-72
2023/05/24 09:04:45;;;;;;;2.57;1.67;;;19.00;59.70;;;;;;4951051;28;20476;-72
2023/05/24 09:07:14;;;;;;;3.40;1.93;;;19.00;61.00;;;;;;4947059;28;20802;-72
2023/05/24 09:09:47;;;;;;;3.60;2.60;;;19.00;60.70;;;;;;4954134;28;20475;-72
2023/05/24 09:12:18;;;;;;;5.20;2.40;;;19.00;60.60;;;;;;4944061;28;20480;-72
2023/05/24 09:15:08;;;;;;;4.20;2.20;;;18.90;60.70;;;;;;4953223;28;20568;-72
2023/05/24 09:17:37;;;;;;;4.43;2.13;;;19.00;61.10;;;;;;4946225;28;20448;-72
2023/05/24 09:20:09;;;;;;;4.30;2.17;;;18.90;61.50;;;;;;4955504;28;20506;-72
2023/05/24 09:22:40;;;;;;;4.47;2.40;;;18.90;61.50;;;;;;4960279;28;20466;-72
2023/05/24 09:25:13;;;;;;;4.30;2.10;;;18.90;61.50;;;;;;4946486;28;20482;-73
2023/05/24 09:27:41;;;;;;;4.47;2.17;;;18.90;61.60;;;;;;4944463;28;20448;-72
2023/05/24 09:30:12;;;;;;;3.93;1.90;;;18.90;61.80;;;;;;4952512;28;20559;-73
2023/05/24 09:32:41;;;;;;;2.60;1.70;;;18.90;61.90;;;;;;4952979;28;20478;-72
2023/05/24 09:35:10;;;;;;;3.50;1.93;;;18.80;61.90;;;;;;4924767;29;20483;-72
2023/05/24 09:37:39;;;;;;;3.27;2.07;;;18.90;62.10;;;;;;4947023;28;20488;-72
2023/05/24 09:40:18;;;;;;;5.13;2.03;;;18.80;62.50;;;;;;4948903;28;20464;-73
2023/05/24 09:42:50;;;;;;;2.97;2.27;;;18.80;62.60;;;;;;4946238;28;20527;-72
2023/05/24 09:45:24;;;;;;;6.63;2.17;;;18.80;62.60;;;;;;4951851;28;20480;-72
2023/05/24 09:47:53;;;;;;;4.67;2.20;;;18.80;62.70;;;;;;4955165;28;21203;-71
2023/05/24 09:50:21;;;;;;;2.40;1.60;;;18.80;62.70;;;;;;4961448;28;20484;-72
2023/05/24 09:52:53;;;;;;;2.50;1.40;;;18.80;62.70;;;;;;4945722;28;20562;-72
2023/05/24 09:55:21;;;;;;;2.53;1.50;;;18.80;62.40;;;;;;4946743;28;20471;-72
2023/05/24 09:57:52;;;;;;;3.07;1.67;;;18.80;62.70;;;;;;4945881;28;20452;-72
2023/05/24 10:00:24;;;;;;;4.13;1.97;;;18.80;62.70;;;;;;4953652;28;20654;-72
2023/05/24 10:03:02;;;;;;;2.30;1.73;;;18.80;62.80;;;;;;4939254;28;20447;-72
2023/05/24 10:05:31;;;;;;;3.57;2.50;;;18.80;62.70;;;;;;4938840;28;21673;-72
2023/05/24 10:08:00;;;;;;;3.70;1.73;;;18.80;62.70;;;;;;4947458;28;20448;-72
2023/05/24 10:10:32;;;;;;;2.37;1.77;;;18.80;62.80;;;;;;4943257;28;20476;-72
2023/05/24 10:13:01;;;;;;;5.00;2.30;;;18.80;62.70;;;;;;4936434;28;20485;-72
2023/05/24 10:15:31;;;;;;;3.37;1.90;;;18.80;62.80;;;;;;4938059;28;20482;-72
2023/05/24 10:18:00;;;;;;;4.33;2.73;;;18.80;62.80;;;;;;4954326;28;20436;-72
2023/05/24 10:20:29;;;;;;;2.93;1.97;;;18.70;62.60;;;;;;4947014;28;20495;-72
2023/05/24 10:23:00;;;;;;;2.73;2.10;;;18.80;62.70;;;;;;4952940;28;20448;-72
2023/05/24 10:25:55;;;;;;;3.90;2.00;;;18.70;62.60;;;;;;4946008;28;20530;-72
2023/05/24 10:28:24;;;;;;;2.77;1.73;;;18.70;62.60;;;;;;4946113;29;20747;-73
2023/05/24 10:31:06;;;;;;;6.43;2.10;;;18.70;62.60;;;;;;4944570;28;20484;-72
2023/05/24 10:33:37;;;;;;;5.30;1.93;;;18.70;62.60;;;;;;4948495;28;21092;-71
2023/05/24 10:36:08;;;;;;;10.77;4.33;;;18.80;62.10;;;;;;4946412;28;20475;-73
2023/05/24 10:38:39;;;;;;;9.00;4.40;;;18.60;52.90;;;;;;4945872;28;20800;-73
2023/05/24 10:41:08;;;;;;;10.33;4.10;;;18.20;53.90;;;;;;4950044;28;20232;-72
2023/05/24 10:43:37;;;;;;;11.07;3.93;;;18.20;56.10;;;;;;4941516;28;20437;-72
2023/05/24 10:46:09;;;;;;;14.80;3.57;;;18.20;57.70;;;;;;4961498;28;20463;-72
2023/05/24 10:48:39;;;;;;;10.57;3.30;;;18.20;58.10;;;;;;4952100;28;20436;-72
2023/05/24 10:51:32;;;;;;;6.80;3.60;;;18.30;59.50;;;;;;4945010;28;20565;-72
2023/05/24 10:54:18;;;;;;;9.93;3.23;;;18.40;59.70;;;;;;4942849;28;20471;-71
2023/05/24 10:56:48;;;;;;;12.23;3.53;;;18.40;59.70;;;;;;4953211;28;20452;-72
2023/05/24 10:59:38;;;;;;;5.60;3.73;;;18.40;59.80;;;;;;4952626;28;20482;-72
2023/05/24 11:02:12;;;;;;;5.13;3.10;;;18.50;59.50;;;;;;4947651;28;20446;-72
2023/05/24 11:04:43;;;;;;;4.93;2.90;;;18.50;59.30;;;;;;4946635;28;20511;-72
2023/05/24 11:07:14;;;;;;;9.03;3.70;;;18.50;59.80;;;;;;4948609;28;20462;-72
2023/05/24 11:09:45;;;;;;;5.83;3.57;;;18.50;59.70;;;;;;4956663;28;20987;-72
2023/05/24 11:12:16;;;;;;;6.73;2.90;;;18.50;59.80;;;;;;4957937;28;21115;-72
2023/05/24 11:14:49;;;;;;;4.70;3.07;;;18.50;60.10;;;;;;4947373;28;20487;-71
2023/05/24 11:17:21;;;;;;;8.77;2.67;;;18.50;60.30;;;;;;4954942;28;21954;-73
2023/05/24 11:19:51;;;;;;;6.37;3.10;;;18.60;60.10;;;;;;4952348;28;20926;-72
2023/05/24 11:22:22;;;;;;;5.20;2.80;;;18.60;60.10;;;;;;4952014;28;20441;-73
2023/05/24 11:24:51;;;;;;;5.70;2.80;;;18.60;60.30;;;;;;4946487;28;20471;-72
2023/05/24 11:27:20;;;;;;;4.70;2.60;;;18.60;60.00;;;;;;4953981;28;20464;-72
2023/05/24 11:29:49;;;;;;;5.50;2.63;;;18.60;60.50;;;;;;4971279;28;20472;-72
2023/05/24 11:32:20;;;;;;;7.57;3.33;;;18.60;60.50;;;;;;4944703;28;20467;-72
2023/05/24 11:34:49;;;;;;;3.23;2.33;;;18.60;60.30;;;;;;4952947;28;20491;-72
2023/05/24 11:37:18;;;;;;;7.50;3.70;;;18.60;60.70;;;;;;4958778;28;20491;-73
2023/05/24 11:39:59;;;;;;;6.60;3.10;;;18.60;60.80;;;;;;4940771;28;20472;-70
2023/05/24 11:42:28;;;;;;;6.73;3.00;;;18.60;60.90;;;;;;4947160;28;20452;-72
2023/05/24 11:44:57;;;;;;;4.10;2.60;;;18.60;60.50;;;;;;4941279;28;20490;-72
2023/05/24 11:47:27;;;;;;;3.60;2.80;;;18.60;60.70;;;;;;4957562;28;20425;-73
2023/05/24 11:49:55;;;;;;;6.47;3.00;;;18.60;60.80;;;;;;4945321;28;20480;-73
2023/05/24 11:52:24;;;;;;;5.03;2.80;;;18.60;60.90;;;;;;4942352;28;20479;-72
2023/05/24 11:54:53;;;;;;;6.33;3.30;;;18.60;60.90;;;;;;4948019;28;20488;-72
2023/05/24 11:57:30;;;;;;;5.10;2.90;;;18.60;61.10;;;;;;4948644;28;20818;-72
2023/05/24 11:59:58;;;;;;;7.17;3.90;;;18.60;61.30;;;;;;4941457;28;20491;-73
2023/05/24 12:02:29;;;;;;;5.27;3.43;;;18.60;60.00;;;;;;4955775;28;20436;-71
2023/05/24 12:05:08;;;;;;;6.07;2.37;;;18.60;60.40;;;;;;4940718;28;20536;-72
2023/05/24 12:07:37;;;;;;;4.70;2.70;;;18.60;61.10;;;;;;4948507;28;20471;-71
2023/05/24 12:10:06;;;;;;;4.33;3.03;;;18.60;61.40;;;;;;4949747;28;20484;-71
2023/05/24 12:12:35;;;;;;;4.30;2.67;;;18.60;61.10;;;;;;4947617;28;20466;-74
2023/05/24 12:15:13;;;;;;;3.20;2.70;;;18.60;60.90;;;;;;4948656;28;20472;-72
2023/05/24 12:17:43;;;;;;;5.30;2.83;;;18.60;61.20;;;;;;4948010;28;20978;-72
2023/05/24 12:20:13;;;;;;;7.23;2.73;;;18.60;60.80;;;;;;4941440;28;20477;-71
2023/05/24 12:22:50;;;;;;;6.83;3.50;;;18.60;60.90;;;;;;4945432;28;20440;-72
2023/05/24 12:25:22;;;;;;;5.93;3.00;;;18.60;61.40;;;;;;4948246;28;20479;-72
2023/05/24 12:27:54;;;;;;;5.60;3.13;;;18.60;61.00;;;;;;4948227;28;20903;-72
2023/05/24 12:30:23;;;;;;;4.23;2.73;;;18.70;61.20;;;;;;4948427;28;20474;-71
2023/05/24 12:32:53;;;;;;;6.80;2.97;;;18.70;61.40;;;;;;4947782;28;21008;-72
2023/05/24 12:35:22;;;;;;;4.20;2.67;;;18.70;61.10;;;;;;4946110;28;20483;-72
2023/05/24 12:37:59;;;;;;;5.27;2.93;;;18.70;60.50;;;;;;4945645;28;20640;-72
2023/05/24 12:40:32;;;;;;;3.73;2.90;;;18.70;61.30;;;;;;4931793;28;20468;-72
2023/05/24 12:43:02;;;;;;;5.40;2.83;;;18.70;61.00;;;;;;4952307;28;20445;-72
2023/05/24 12:45:31;;;;;;;4.20;2.73;;;18.70;61.20;;;;;;4958709;28;21004;-72
2023/05/24 12:48:01;;;;;;;4.13;2.40;;;18.70;61.10;;;;;;4944056;28;20505;-72
2023/05/24 12:50:33;;;;;;;6.43;2.80;;;18.70;61.30;;;;;;4942591;28;20603;-72
2023/05/24 12:53:02;;;;;;;4.90;2.63;;;18.70;61.50;;;;;;4944983;28;20477;-72
2023/05/24 12:55:30;;;;;;;3.70;2.23;;;18.70;61.70;;;;;;4943044;28;20476;-72
2023/05/24 12:58:01;;;;;;;3.87;2.63;;;18.70;61.70;;;;;;4941798;28;20798;-72
2023/05/24 13:00:30;;;;;;;3.87;2.60;;;18.70;61.50;;;;;;4944853;28;20480;-72
2023/05/24 13:02:58;;;;;;;2.87;2.30;;;18.70;61.70;;;;;;4944775;28;20444;-72